Golts, Maryland
Current Conditions -  °F | °C
As of 11:58 PM on Saturday 25 Oct 2014 (Local Time) from KDOV Reporting Station
Clear Clear  
Wind Chill: 56°   Ceiling: Unl
Heat Index: 56°   Visibility: 9mi
Dew Point: 47°   Wind: 9mph
Humidity: 72%   Direction: 210°SSW
Pressure: 29.65"   Gusts: NA
Location:  39.3314°N, 75.8397°W
Report Text: KDOV 260358Z AUTO 21008KT 9SM R19/5500FT CLR 13/08 A2965 RMK AO2 SLP044 T01320082
Loading
Personal Weather Stations






























Interactive Weather Map
Tropical Storm Tracking
New forecast layout! Learn more

10-Day Weather Forecast

Advertisements
Track Severe Weather on mobile